Estación de Peldehue

Ultimos registro cada 15 minutos 58
Estación Fecha / Hora Temperatura Humedad Lluvia Velocidad Dirección Radiación Presion
58 Peldehue 06-05-2026 14:15 18,8 52,8 0 0,5 355 213,1 936,7
57 Peldehue 06-05-2026 14:00 19 50,6 0 0,5 358 195,6 936,4
56 Peldehue 06-05-2026 13:45 19,3 48,7 0 1 1 240,6 936,4
55 Peldehue 06-05-2026 13:30 18,9 48,4 0 1,5 358 200,6 936,5
54 Peldehue 06-05-2026 13:15 19,1 47,7 0 1,5 358 215,6 936,3
53 Peldehue 06-05-2026 13:00 19,6 45,2 0 1,5 357 240,6 936,4
52 Peldehue 06-05-2026 12:45 19,9 43,4 0 1 357 273,1 936,1
51 Peldehue 06-05-2026 12:30 21,4 37,7 0 0,5 358 343,1 936
50 Peldehue 06-05-2026 12:15 21,7 29,9 0 1,5 18 393,1 935,5
49 Peldehue 06-05-2026 12:00 21,3 30,5 0 1,5 25 334,4 935,5
48 Peldehue 06-05-2026 11:45 23,5 26,7 0 1,5 3 298,1 935,7
47 Peldehue 06-05-2026 11:30 23,8 27,9 0 1,5 18 684,4 935,4
46 Peldehue 06-05-2026 11:15 22,8 28,9 0 1,5 27 704,4 934,7
45 Peldehue 06-05-2026 11:00 20,8 31,2 0 1,5 25 435,6 935
44 Peldehue 06-05-2026 10:45 20,9 34,8 0 1 18 345,6 935,1
43 Peldehue 06-05-2026 10:30 19,7 37,4 0 0,5 20 260,6 935,1
42 Peldehue 06-05-2026 10:15 19,3 46,7 0 0 41 298,1 935,5
41 Peldehue 06-05-2026 10:00 18,6 51,2 0 0 44 346,9 935,3
40 Peldehue 06-05-2026 09:45 18,5 50,9 0 0 46 330,6 935,4
39 Peldehue 06-05-2026 09:30 18,2 52,6 0 0 48 269,4 935,7
38 Peldehue 06-05-2026 09:15 18,3 54,2 0 0 51 316,9 935,6
37 Peldehue 06-05-2026 09:00 16,8 58 0 0 58 260,6 935,7
36 Peldehue 06-05-2026 08:45 15,2 63,5 0 0,5 146 214,4 935,6
35 Peldehue 06-05-2026 08:30 10,2 81,7 0 0 209 29,4 935,8
34 Peldehue 06-05-2026 08:15 7,8 86,4 0 0 209 19,4 935,9
33 Peldehue 06-05-2026 08:00 7,4 86,7 0 0 209 11,9 935,7
32 Peldehue 06-05-2026 07:45 7,7 85,6 0 0 209 8,1 935,7
31 Peldehue 06-05-2026 07:30 8 88,4 0 0 209 4,4 935,4
30 Peldehue 06-05-2026 07:15 7,6 87,5 0 0 211 1,9 934,9
29 Peldehue 06-05-2026 07:00 7,3 87 0 0 212 0,6 935
28 Peldehue 06-05-2026 06:45 8,1 83,9 0 0 208 0,6 934,5
27 Peldehue 06-05-2026 06:30 9,1 84,1 0 0 208 0,6 934,3
26 Peldehue 06-05-2026 06:15 9,1 84,6 0 0 208 0,6 934,2
25 Peldehue 06-05-2026 06:00 8,5 86,2 0 0 209 0,6 934,1
24 Peldehue 06-05-2026 05:45 7,8 85,1 0 0 209 0,6 933,8
23 Peldehue 06-05-2026 05:30 7,8 85,9 0 0 211 0,6 933,7
22 Peldehue 06-05-2026 05:15 8,7 85,6 0 0 209 0,6 933,6
21 Peldehue 06-05-2026 05:00 9,1 85,2 0 0 209 0,6 933,4
20 Peldehue 06-05-2026 04:45 8,6 84,6 0 0 209 0,6 933,5
19 Peldehue 06-05-2026 04:30 8,2 86,2 0 0 211 0,6 933,4
18 Peldehue 06-05-2026 04:15 8,8 82,8 0 0 209 0,6 933,1
17 Peldehue 06-05-2026 04:00 9 83 0 0 209 0,6 933,1
16 Peldehue 06-05-2026 03:45 8,7 83,3 0 0 209 0,6 933
15 Peldehue 06-05-2026 03:30 9,4 83,3 0 0 209 0,6 933,1
14 Peldehue 06-05-2026 03:15 9,9 83,3 0 0 209 0,6 932,9
13 Peldehue 06-05-2026 03:00 10,2 82,5 0 0 212 0,6 933,2
12 Peldehue 06-05-2026 02:45 10,6 81,9 0 0 215 0,6 933,5
11 Peldehue 06-05-2026 02:30 10,9 81 0 0 215 0,6 933,4
10 Peldehue 06-05-2026 02:15 10,7 80,5 0 0 215 0,6 933,9
9 Peldehue 06-05-2026 02:00 10,8 80,6 0 0 215 0,6 933,9
8 Peldehue 06-05-2026 01:45 10,9 80,6 0 0 215 0,6 933,9
7 Peldehue 06-05-2026 01:30 11 79,1 0 0 215 0,6 934
6 Peldehue 06-05-2026 01:15 11 80,2 0 0 215 0,6 934,2
5 Peldehue 06-05-2026 01:00 11,2 82,1 0 0 215 0,6 934,4
4 Peldehue 06-05-2026 00:45 11,2 80,7 0 0 215 0,6 934,3
3 Peldehue 06-05-2026 00:30 11,4 81,3 0 0 215 0,6 934,5
2 Peldehue 06-05-2026 00:15 11,4 80,4 0 0 215 0,6 934,5
1 Peldehue 06-05-2026 00:00 11,4 80,4 0 0 215 0,6 934,3